Time;durP1;ratioP1;P1;durP2;ratioP2;P2;SDS_P1;SDS_P2;PMS_P1;PMS_P2;Temp;Humidity;BMP_temperature;BMP_pressure;BME280_temperature;BME280_humidity;BME280_pressure;Samples;Min_cycle;Max_cycle;Signal;HPM_P1;HPM_P2
2024/03/21 00:00:11;;;;;;;26.55;16.00;;;13.30;92.80;;;;;;5058753;28;20400;-72
2024/03/21 00:03:15;;;;;;;23.48;15.45;;;13.30;92.90;;;;;;5071112;28;20055;-72
2024/03/21 00:06:22;;;;;;;31.90;16.38;;;12.90;93.00;;;;;;5071346;28;20039;-72
2024/03/21 00:09:25;;;;;;;25.30;16.38;;;13.20;92.70;;;;;;5070986;28;20186;-72
2024/03/21 00:12:29;;;;;;;28.38;15.15;;;13.30;92.60;;;;;;5070825;28;20051;-72
2024/03/21 00:15:33;;;;;;;24.83;15.32;;;13.00;92.80;;;;;;5071052;28;20385;-72
2024/03/21 00:18:38;;;;;;;20.80;15.00;;;13.20;92.50;;;;;;5070740;28;20059;-72
2024/03/21 00:21:41;;;;;;;25.15;13.63;;;14.60;93.20;;;;;;5070700;28;20059;-72
2024/03/21 00:24:45;;;;;;;23.42;14.38;;;13.20;92.40;;;;;;5070942;28;20051;-72
2024/03/21 00:27:50;;;;;;;27.38;14.38;;;14.50;93.10;;;;;;5070534;28;20052;-71
2024/03/21 00:30:58;;;;;;;21.50;13.55;;;13.10;92.20;;;;;;5069890;28;20043;-72
2024/03/21 00:34:02;;;;;;;22.02;13.38;;;12.80;92.60;;;;;;5070850;28;20047;-71
2024/03/21 00:37:07;;;;;;;22.98;12.55;;;13.20;92.20;;;;;;5069946;28;20392;-72
2024/03/21 00:40:11;;;;;;;19.17;11.55;;;12.70;92.20;;;;;;5070622;28;20067;-72
2024/03/21 00:43:15;;;;;;;21.20;12.77;;;13.20;91.80;;;;;;5070550;28;20565;-72
2024/03/21 00:46:19;;;;;;;20.05;11.85;;;13.20;91.80;;;;;;5070774;28;20055;-72
2024/03/21 00:49:23;;;;;;;20.10;12.00;;;13.00;91.90;;;;;;5070368;28;20044;-72
2024/03/21 00:52:27;;;;;;;21.45;12.98;;;12.90;92.20;;;;;;5070386;28;20048;-71
2024/03/21 00:55:31;;;;;;;24.60;13.48;;;12.80;92.40;;;;;;5070673;28;20047;-72
2024/03/21 00:58:34;;;;;;;22.02;12.65;;;12.80;92.40;;;;;;5070383;28;20047;-71
2024/03/21 01:01:40;;;;;;;21.90;11.50;;;12.80;92.40;;;;;;5072687;28;20060;-72
2024/03/21 01:04:50;;;;;;;18.02;10.95;;;12.70;92.20;;;;;;5074652;28;20384;-72
2024/03/21 01:07:54;;;;;;;19.20;10.68;;;12.70;92.30;;;;;;5074104;28;20051;-72
2024/03/21 01:10:58;;;;;;;13.82;9.38;;;12.70;92.40;;;;;;5073514;28;20047;-71
2024/03/21 01:14:01;;;;;;;15.50;9.48;;;12.70;92.10;;;;;;5074309;28;20047;-71
2024/03/21 01:17:06;;;;;;;20.45;9.70;;;;;;;;;;5073382;28;20447;-71
2024/03/21 01:20:10;;;;;;;25.70;9.82;;;12.80;91.70;;;;;;5074039;28;20036;-72
2024/03/21 01:23:14;;;;;;;19.65;11.52;;;12.70;92.20;;;;;;5074008;28;20043;-72
2024/03/21 01:26:18;;;;;;;20.30;10.38;;;12.80;92.40;;;;;;5074082;28;20075;-72
2024/03/21 01:29:22;;;;;;;19.75;10.93;;;12.70;92.70;;;;;;5073134;28;20075;-72
2024/03/21 01:32:26;;;;;;;23.02;13.77;;;12.60;92.50;;;;;;5073840;28;20115;-71
2024/03/21 01:35:30;;;;;;;20.58;13.27;;;12.50;93.20;;;;;;5073883;28;20048;-71
2024/03/21 01:38:34;;;;;;;18.90;14.10;;;12.60;93.00;;;;;;5073810;28;20067;-72
2024/03/21 02:04:49;;;;;;;20.95;13.73;;;10.60;94.10;;;;;;5077641;28;20381;-72
2024/03/21 02:07:53;;;;;;;20.95;13.82;;;12.50;94.70;;;;;;5073199;28;20047;-72
2024/03/21 02:10:57;;;;;;;22.50;13.85;;;12.00;93.80;;;;;;5072411;28;20408;-72
2024/03/21 02:14:03;;;;;;;20.40;13.60;;;13.40;95.00;;;;;;5072816;28;20051;-72
2024/03/21 02:17:07;;;;;;;25.02;15.45;;;12.00;94.20;;;;;;5072534;28;20043;-72
2024/03/21 02:20:14;;;;;;;26.75;15.18;;;13.80;95.40;;;;;;5072971;28;20047;-72
2024/03/21 02:23:17;;;;;;;24.58;15.38;;;11.90;94.50;;;;;;5072398;28;20064;-72
2024/03/21 02:26:23;;;;;;;21.38;14.43;;;12.00;94.60;;;;;;5072096;28;20052;-72
2024/03/21 02:29:30;;;;;;;20.50;14.65;;;11.90;94.70;;;;;;5073032;28;20048;-72
2024/03/21 02:32:34;;;;;;;24.13;14.52;;;11.80;94.60;;;;;;5073058;28;20048;-71
2024/03/21 02:35:39;;;;;;;22.65;14.88;;;11.80;95.00;;;;;;5073110;28;20059;-71
2024/03/21 02:38:43;;;;;;;22.60;14.82;;;11.90;95.10;;;;;;5071884;28;20048;-72
2024/03/21 02:41:47;;;;;;;22.67;15.23;;;11.80;94.60;;;;;;5072710;28;20051;-72
2024/03/21 02:44:51;;;;;;;24.17;15.55;;;13.50;96.20;;;;;;5072882;28;20036;-72
2024/03/21 02:47:55;;;;;;;24.73;15.52;;;10.90;95.60;;;;;;5072683;28;20059;-72
2024/03/21 02:50:59;;;;;;;22.65;15.25;;;12.00;95.00;;;;;;5071884;28;20069;-72
2024/03/21 02:54:04;;;;;;;19.70;13.48;;;11.80;95.30;;;;;;5071781;28;20040;-71
2024/03/21 02:57:10;;;;;;;25.15;15.15;;;11.80;95.80;;;;;;5072544;28;20048;-72
2024/03/21 03:00:14;;;;;;;30.25;18.25;;;10.50;96.70;;;;;;5072355;28;20039;-72
2024/03/21 03:03:18;;;;;;;28.42;17.55;;;10.20;96.70;;;;;;5072084;28;20051;-72
2024/03/21 03:06:25;;;;;;;26.15;15.93;;;11.80;96.10;;;;;;5072278;28;20055;-71
2024/03/21 03:09:29;;;;;;;26.30;16.67;;;;;;;;;;5072331;28;20052;-71
2024/03/21 03:12:33;;;;;;;33.72;15.98;;;11.90;95.70;;;;;;5072504;28;20043;-72
2024/03/21 03:15:37;;;;;;;24.85;14.70;;;10.40;96.50;;;;;;5072402;28;20060;-71
2024/03/21 03:18:41;;;;;;;24.70;14.48;;;10.50;96.50;;;;;;5072220;28;20044;-71
2024/03/21 03:21:45;;;;;;;25.17;15.00;;;11.90;95.70;;;;;;5070977;28;20051;-71
2024/03/21 03:24:49;;;;;;;21.08;12.73;;;11.90;95.40;;;;;;5072022;28;20043;-72
2024/03/21 03:27:56;;;;;;;17.75;11.80;;;11.30;95.80;;;;;;5071751;28;20056;-71
2024/03/21 03:30:59;;;;;;;21.25;12.55;;;11.60;94.80;;;;;;5071777;28;20158;-71
2024/03/21 03:37:25;;;;;;;22.73;12.00;;;10.40;96.40;;;;;;5070717;28;20043;-71
2024/03/21 03:40:29;;;;;;;18.20;11.63;;;11.40;95.60;;;;;;5071435;28;20048;-71
2024/03/21 03:43:33;;;;;;;16.55;10.73;;;10.60;96.20;;;;;;5071583;28;20051;-71
2024/03/21 03:46:37;;;;;;;17.92;10.80;;;11.50;95.30;;;;;;5071484;28;20039;-71
2024/03/21 03:49:41;;;;;;;19.48;10.82;;;10.60;96.60;;;;;;5071230;28;20047;-71
2024/03/21 03:52:45;;;;;;;17.63;10.88;;;9.70;95.80;;;;;;5071397;28;20503;-71
2024/03/21 03:59:11;;;;;;;19.38;11.70;;;10.10;96.40;;;;;;5071233;28;20051;-72
2024/03/21 04:02:15;;;;;;;21.20;11.60;;;9.70;96.40;;;;;;5070919;28;20048;-71
2024/03/21 04:05:20;;;;;;;17.40;11.60;;;9.40;96.80;;;;;;5071246;28;20039;-71
2024/03/21 04:08:24;;;;;;;21.20;12.07;;;10.90;95.80;;;;;;5070941;28;20048;-71
2024/03/21 04:11:28;;;;;;;20.75;11.88;;;10.90;95.80;;;;;;5071198;28;20035;-71
2024/03/21 04:14:32;;;;;;;17.15;12.38;;;11.50;97.40;;;;;;5070403;28;20048;-71
2024/03/21 04:17:36;;;;;;;24.13;12.35;;;9.90;97.10;;;;;;5071033;28;20039;-72
2024/03/21 04:20:40;;;;;;;21.00;12.82;;;10.90;96.20;;;;;;5070840;28;20047;-71
2024/03/21 04:23:44;;;;;;;22.50;14.13;;;12.60;97.70;;;;;;5071213;28;20047;-71
2024/03/21 04:26:48;;;;;;;23.95;14.32;;;10.50;97.30;;;;;;5070750;28;20059;-71
2024/03/21 04:29:52;;;;;;;30.02;14.10;;;10.90;96.40;;;;;;5070927;28;20051;-71
2024/03/21 04:32:57;;;;;;;21.02;14.30;;;11.00;96.50;;;;;;5071120;28;20047;-71
2024/03/21 04:36:03;;;;;;;22.83;14.73;;;9.20;97.20;;;;;;5070606;28;20043;-71
2024/03/21 04:39:07;;;;;;;27.98;15.90;;;10.80;96.60;;;;;;5070974;28;20043;-72
2024/03/21 04:42:16;;;;;;;26.42;16.63;;;9.50;97.70;;;;;;5069784;28;20052;-72
2024/03/21 04:45:22;;;;;;;24.63;14.90;;;9.80;97.20;;;;;;5070813;28;20039;-71
2024/03/21 04:48:27;;;;;;;26.42;16.08;;;;;;;;;;5070627;28;20043;-72
2024/03/21 04:51:30;;;;;;;24.77;15.20;;;9.60;97.70;;;;;;5070752;28;20491;-71
2024/03/21 04:54:34;;;;;;;26.70;15.95;;;;;;;;;;5070687;28;20047;-71
2024/03/21 04:57:39;;;;;;;24.13;15.90;;;11.00;96.60;;;;;;5070594;28;20039;-72
2024/03/21 05:00:43;;;;;;;26.30;16.10;;;9.50;97.30;;;;;;5070225;28;20044;-72
2024/03/21 05:03:47;;;;;;;31.15;15.05;;;9.50;97.30;;;;;;5069777;28;20044;-71
2024/03/21 05:06:52;;;;;;;21.30;14.48;;;9.70;97.40;;;;;;5070439;28;20059;-71
2024/03/21 05:09:56;;;;;;;27.73;16.52;;;11.00;96.70;;;;;;5070461;28;20055;-71
2024/03/21 05:12:59;;;;;;;27.75;16.75;;;9.80;97.90;;;;;;5069843;28;20051;-71
2024/03/21 05:16:03;;;;;;;26.42;15.80;;;10.90;97.20;;;;;;5069828;28;20040;-72
2024/03/21 05:19:08;;;;;;;28.25;17.98;;;9.90;97.70;;;;;;5069624;28;20058;-72
2024/03/21 05:22:12;;;;;;;26.92;15.50;;;11.20;97.10;;;;;;5057883;28;20055;-71
2024/03/21 05:25:16;;;;;;;24.30;14.30;;;14.00;97.80;;;;;;5069651;28;20048;-72
2024/03/21 05:28:19;;;;;;;28.25;14.88;;;11.20;96.50;;;;;;5070781;28;20062;-72
2024/03/21 05:31:25;;;;;;;39.47;15.48;;;11.40;96.60;;;;;;5070437;28;20052;-72
2024/03/21 05:34:29;;;;;;;29.52;14.95;;;11.90;96.50;;;;;;5070419;28;20043;-71
2024/03/21 05:37:33;;;;;;;36.60;14.60;;;12.40;95.50;;;;;;5070214;28;20051;-72
2024/03/21 05:40:41;;;;;;;22.92;13.05;;;12.90;94.40;;;;;;5070066;28;20048;-72
2024/03/21 05:43:44;;;;;;;24.10;13.98;;;13.70;93.50;;;;;;5057815;28;20048;-72
2024/03/21 05:46:49;;;;;;;31.98;13.98;;;14.50;91.90;;;;;;5070261;28;20392;-71
2024/03/21 05:49:53;;;;;;;27.67;13.07;;;15.10;91.30;;;;;;5073552;28;20040;-72
2024/03/21 05:52:57;;;;;;;37.50;13.75;;;15.70;90.40;;;;;;5072669;28;20044;-70
2024/03/21 05:56:06;;;;;;;23.25;13.82;;;16.10;89.50;;;;;;5049681;28;20043;-72
2024/03/21 05:59:12;;;;;;;23.55;15.93;;;;;;;;;;5073557;28;20051;-73
2024/03/21 06:02:16;;;;;;;32.30;17.70;;;;;;;;;;5060819;28;20051;-73
2024/03/21 06:05:20;;;;;;;24.13;15.85;;;;;;;;;;5073614;28;20043;-71
2024/03/21 06:08:25;;;;;;;27.73;15.10;;;;;;;;;;5072591;28;20047;-70
2024/03/21 06:11:29;;;;;;;35.47;14.88;;;;;;;;;;5073300;28;20043;-72
2024/03/21 06:14:35;;;;;;;24.63;13.57;;;;;;;;;;5072192;28;20039;-72
2024/03/21 06:17:39;;;;;;;23.50;12.85;;;;;;;;;;5072431;28;20048;-71
2024/03/21 06:20:44;;;;;;;21.48;14.75;;;17.50;85.30;;;;;;5072880;28;20048;-71
2024/03/21 06:23:49;;;;;;;25.85;15.73;;;;;;;;;;5073019;28;20043;-71
2024/03/21 06:26:53;;;;;;;26.00;17.05;;;;;;;;;;5072553;28;20055;-71
2024/03/21 06:29:57;;;;;;;24.45;16.10;;;;;;;;;;5072810;28;20041;-71
2024/03/21 06:33:01;;;;;;;27.98;15.43;;;;;;;;;;5073124;28;20047;-71
2024/03/21 06:36:06;;;;;;;23.42;15.90;;;;;;;;;;5072746;28;20047;-71
2024/03/21 06:39:12;;;;;;;26.88;16.88;;;;;;;;;;5072708;28;20044;-71
2024/03/21 06:42:16;;;;;;;30.42;15.95;;;;;;;;;;5072545;28;20067;-70
2024/03/21 06:45:22;;;;;;;29.95;16.35;;;;;;;;;;5072820;28;20055;-70
2024/03/21 06:48:29;;;;;;;27.85;17.02;;;18.00;87.40;;;;;;5072252;28;20047;-70
2024/03/21 06:51:33;;;;;;;34.13;17.73;;;;;;;;;;5072558;28;20051;-69
2024/03/21 06:54:38;;;;;;;31.60;16.52;;;;;;;;;;5072317;28;20507;-70
2024/03/21 06:57:42;;;;;;;30.75;16.10;;;;;;;;;;5072301;28;20044;-71
2024/03/21 07:00:46;;;;;;;30.02;16.45;;;;;;;;;;5072303;28;20040;-71
2024/03/21 07:03:51;;;;;;;29.63;16.25;;;;;;;;;;5071502;28;20527;-69
2024/03/21 07:06:55;;;;;;;30.15;15.30;;;;;;;;;;5072064;28;20063;-74
2024/03/21 07:09:59;;;;;;;33.28;15.98;;;;;;;;;;5071815;28;20048;-69
2024/03/21 07:13:04;;;;;;;22.90;13.98;;;;;;;;;;5071662;28;20047;-69
2024/03/21 07:16:07;;;;;;;25.40;14.40;;;18.30;89.80;;;;;;5072077;28;20052;-68
2024/03/21 07:19:11;;;;;;;26.13;15.35;;;18.30;89.90;;;;;;5059741;28;20047;-69
2024/03/21 07:22:15;;;;;;;28.98;15.60;;;18.30;90.10;;;;;;5071386;28;20055;-69
2024/03/21 07:25:19;;;;;;;26.13;15.52;;;18.20;89.80;;;;;;5071491;28;20044;-69
2024/03/21 07:28:23;;;;;;;22.02;13.98;;;18.50;90.00;;;;;;5071550;28;20055;-69
2024/03/21 07:31:28;;;;;;;25.67;15.32;;;;;;;;;;5070935;28;20035;-69
2024/03/21 07:34:32;;;;;;;21.05;13.50;;;;;;;;;;5071680;28;20048;-69
2024/03/21 07:37:36;;;;;;;21.30;14.02;;;;;;;;;;5071667;28;20495;-69
2024/03/21 07:40:41;;;;;;;30.25;19.13;;;;;;;;;;5071748;28;20051;-68
2024/03/21 07:43:45;;;;;;;22.30;15.25;;;;;;;;;;5071735;28;20051;-69
2024/03/21 07:46:49;;;;;;;24.95;14.77;;;;;;;;;;5071633;28;20059;-69
2024/03/21 07:49:54;;;;;;;27.35;15.93;;;;;;;;;;5071556;28;20699;-68
2024/03/21 07:52:59;;;;;;;32.90;16.08;;;;;;;;;;5071294;28;20193;-67
2024/03/21 07:56:03;;;;;;;23.67;15.35;;;;;;;;;;5070139;28;20411;-70
2024/03/21 07:59:07;;;;;;;32.90;17.10;;;;;;;;;;5071013;28;20490;-69
2024/03/21 08:02:12;;;;;;;28.70;13.02;;;;;;;;;;5070012;28;20067;-70
2024/03/21 08:05:16;;;;;;;29.30;12.90;;;;;;;;;;5070996;28;20047;-71
2024/03/21 08:08:21;;;;;;;22.17;14.00;;;;;;;;;;5071022;28;20051;-70
2024/03/21 08:11:25;;;;;;;23.75;15.02;;;;;;;;;;5070260;28;20051;-69
2024/03/21 08:14:30;;;;;;;19.77;12.65;;;;;;;;;;5071467;28;20389;-70
2024/03/21 08:17:34;;;;;;;20.35;14.13;;;;;;;;;;5071246;28;20043;-70
2024/03/21 08:20:38;;;;;;;22.67;14.50;;;;;;;;;;5070654;28;20044;-69
2024/03/21 08:23:42;;;;;;;25.25;16.63;;;;;;;;;;5070628;28;20055;-70
2024/03/21 08:26:49;;;;;;;27.23;15.18;;;;;;;;;;5070570;28;20060;-70
2024/03/21 08:29:54;;;;;;;28.27;15.07;;;;;;;;;;5070448;28;20044;-69
2024/03/21 08:32:59;;;;;;;20.08;12.82;;;;;;;;;;5070600;28;20051;-69
2024/03/21 08:36:05;;;;;;;29.10;14.63;;;;;;;;;;5070516;28;20068;-69
2024/03/21 08:39:09;;;;;;;25.08;13.48;;;;;;;;;;5070640;28;20047;-70
2024/03/21 08:42:14;;;;;;;20.42;13.98;;;;;;;;;;5070264;28;21202;-69
2024/03/21 08:45:19;;;;;;;23.17;14.00;;;;;;;;;;5070645;28;20599;-70
2024/03/21 08:48:23;;;;;;;21.13;13.32;;;;;;;;;;5070201;28;20055;-70
2024/03/21 08:51:28;;;;;;;23.70;13.65;;;;;;;;;;5070863;28;20047;-71
2024/03/21 08:54:32;;;;;;;20.65;13.27;;;;;;;;;;5070793;28;20040;-70
2024/03/21 08:57:37;;;;;;;22.80;12.88;;;;;;;;;;5070770;28;20048;-71
2024/03/21 09:00:41;;;;;;;23.42;15.40;;;;;;;;;;5070608;28;20396;-70
2024/03/21 09:03:45;;;;;;;22.75;12.23;;;;;;;;;;5070776;28;20051;-71
2024/03/21 09:06:50;;;;;;;20.00;13.77;;;;;;;;;;5069881;28;20043;-70
2024/03/21 09:09:54;;;;;;;20.33;11.32;;;;;;;;;;5070000;28;20047;-70
2024/03/21 09:12:58;;;;;;;21.63;11.90;;;;;;;;;;5070282;28;20047;-70
2024/03/21 09:16:03;;;;;;;18.05;12.40;;;;;;;;;;5069659;28;20047;-71
2024/03/21 09:19:07;;;;;;;22.85;13.40;;;;;;;;;;5070290;28;20044;-70
2024/03/21 09:22:11;;;;;;;22.13;13.80;;;;;;;;;;5071867;28;20520;-71
2024/03/21 09:25:15;;;;;;;22.00;13.85;;;;;;;;;;5073327;28;20044;-70
2024/03/21 09:28:20;;;;;;;25.65;14.00;;;;;;;;;;5074040;28;20059;-70
2024/03/21 09:31:26;;;;;;;26.80;14.68;;;;;;;;;;5074004;28;20043;-70
2024/03/21 09:34:30;;;;;;;22.30;16.40;;;;;;;;;;5074188;28;20051;-69
2024/03/21 09:37:34;;;;;;;23.70;16.80;;;;;;;;;;5073782;28;20039;-70
2024/03/21 09:40:38;;;;;;;14.40;10.35;;;;;;;;;;5072918;28;20056;-70
2024/03/21 09:43:45;;;;;;;20.05;12.10;;;;;;;;;;5073548;28;20055;-69
2024/03/21 09:46:50;;;;;;;17.60;11.18;;;20.70;91.50;;;;;;5073535;28;20043;-70
2024/03/21 09:49:54;;;;;;;17.73;11.80;;;;;;;;;;5073601;28;20399;-70
2024/03/21 09:52:59;;;;;;;20.08;11.55;;;;;;;;;;5072519;28;20054;-70
2024/03/21 09:56:08;;;;;;;23.38;12.25;;;20.90;90.40;;;;;;5073606;28;20048;-69
2024/03/21 09:59:13;;;;;;;20.45;13.95;;;;;;;;;;5073230;28;20040;-69
2024/03/21 10:02:18;;;;;;;19.05;12.25;;;;;;;;;;5073199;28;20523;-69
2024/03/21 10:05:23;;;;;;;23.48;11.73;;;20.80;90.30;;;;;;5072318;28;20041;-70
2024/03/21 10:08:27;;;;;;;26.02;12.75;;;;;;;;;;5073343;28;20047;-67
2024/03/21 10:11:32;;;;;;;12.30;9.15;;;;;;;;;;5073526;28;20048;-68
2024/03/21 10:14:36;;;;;;;13.77;8.15;;;;;;;;;;5073323;28;20041;-69
2024/03/21 10:17:41;;;;;;;24.20;11.85;;;22.40;90.60;;;;;;5073013;28;20048;-69
2024/03/21 10:20:48;;;;;;;18.40;12.27;;;;;;;;;;5072915;28;20388;-69
2024/03/21 10:24:02;;;;;;;22.67;12.65;;;19.50;90.40;;;;;;5073003;28;20051;-70
2024/03/21 10:27:13;;;;;;;16.17;11.05;;;20.50;91.00;;;;;;5072745;28;20051;-70
2024/03/21 10:30:18;;;;;;;16.20;11.00;;;19.60;90.50;;;;;;5073142;28;20051;-70
2024/03/21 10:33:24;;;;;;;14.43;9.25;;;22.10;91.00;;;;;;5071851;28;20067;-72
2024/03/21 10:36:28;;;;;;;22.85;11.15;;;;;;;;;;5072509;28;20468;-70
2024/03/21 10:39:32;;;;;;;14.32;8.85;;;;;;;;;;5072303;28;20408;-71
2024/03/21 10:42:41;;;;;;;17.65;10.38;;;21.50;89.20;;;;;;5071491;28;20052;-71
2024/03/21 10:45:47;;;;;;;11.98;9.38;;;21.60;89.00;;;;;;5072278;28;20043;-70
2024/03/21 10:48:57;;;;;;;12.27;7.60;;;22.00;89.40;;;;;;5060351;28;20051;-72
2024/03/21 10:52:05;;;;;;;16.90;9.80;;;21.80;88.40;;;;;;5072062;28;20043;-72
2024/03/21 10:55:10;;;;;;;13.85;7.65;;;;;;;;;;5072549;28;20051;-82
2024/03/21 10:58:16;;;;;;;11.07;7.10;;;22.00;88.30;;;;;;5076560;28;20041;-77
2024/03/21 11:01:20;;;;;;;14.60;7.90;;;;;;;;;;5076713;28;20056;-75
2024/03/21 11:04:35;;;;;;;9.52;7.45;;;22.40;87.10;;;;;;5075166;28;20536;-77
2024/03/21 11:07:39;;;;;;;9.38;6.82;;;21.50;86.10;;;;;;5071176;28;20036;-70
2024/03/21 11:10:46;;;;;;;19.73;9.63;;;;;;;;;;5071868;28;20405;-71
2024/03/21 11:13:50;;;;;;;14.60;7.20;;;;;;;;;;5071845;28;20029;-75
2024/03/21 11:16:55;;;;;;;16.27;9.10;;;;;;;;;;5072036;28;20045;-73
2024/03/21 11:20:05;;;;;;;14.90;8.35;;;;;;;;;;5071910;28;20033;-77
2024/03/21 11:23:12;;;;;;;14.85;8.90;;;21.80;87.50;;;;;;5070819;28;20045;-73
2024/03/21 11:26:18;;;;;;;16.42;9.98;;;21.10;88.00;;;;;;5070619;28;20052;-73
2024/03/21 11:29:22;;;;;;;15.27;10.07;;;;;;;;;;5070886;28;20511;-72
2024/03/21 11:32:28;;;;;;;11.48;7.50;;;;;;;;;;5071807;28;20371;-74
2024/03/21 11:35:35;;;;;;;10.80;6.93;;;;;;;;;;5071534;28;20037;-74
2024/03/21 11:38:39;;;;;;;9.77;7.30;;;;;;;;;;5071495;28;20495;-72
2024/03/21 11:41:44;;;;;;;12.65;9.32;;;;;;;;;;5071245;28;20037;-78
2024/03/21 11:44:49;;;;;;;16.58;9.48;;;;;;;;;;5069940;28;20052;-73
2024/03/21 11:47:54;;;;;;;11.70;7.78;;;;;;;;;;5071337;28;20032;-72
2024/03/21 11:50:58;;;;;;;15.60;9.57;;;;;;;;;;5071670;28;20043;-78
2024/03/21 11:54:04;;;;;;;23.05;12.60;;;21.70;89.20;;;;;;5071373;28;20055;-73
2024/03/21 11:57:17;;;;;;;24.63;14.63;;;20.20;88.80;;;;;;5071366;28;20415;-73
2024/03/21 12:00:22;;;;;;;17.80;10.20;;;19.50;88.50;;;;;;5071400;28;20051;-74
2024/03/21 12:03:26;;;;;;;17.95;10.20;;;;;;;;;;5070929;28;20052;-76
2024/03/21 12:06:30;;;;;;;20.52;13.27;;;;;;;;;;5071230;28;20051;-74
2024/03/21 12:09:35;;;;;;;24.85;12.48;;;;;;;;;;5070168;28;20511;-77
2024/03/21 12:12:39;;;;;;;21.25;13.75;;;;;;;;;;5070460;28;20059;-76
2024/03/21 12:15:44;;;;;;;18.95;10.20;;;;;;;;;;5071037;28;20051;-76
2024/03/21 12:18:48;;;;;;;23.50;11.55;;;;;;;;;;5070719;28;20040;-75
2024/03/21 12:21:52;;;;;;;24.38;11.75;;;;;;;;;;5070980;28;20058;-77
2024/03/21 12:25:00;;;;;;;19.80;10.13;;;;;;;;;;5070701;28;20044;-76
2024/03/21 12:28:04;;;;;;;17.23;11.30;;;;;;;;;;5070885;28;20396;-77
2024/03/21 12:31:12;;;;;;;19.77;12.18;;;21.40;90.70;;;;;;5070989;28;20063;-75
2024/03/21 12:34:17;;;;;;;21.90;12.63;;;;;;;;;;5071085;28;20051;-77
2024/03/21 12:37:22;;;;;;;16.48;11.15;;;;;;;;;;5070712;28;20035;-75
2024/03/21 12:40:26;;;;;;;24.13;11.70;;;;;;;;;;5070146;28;20400;-76
2024/03/21 12:43:31;;;;;;;19.90;11.98;;;;;;;;;;5070100;28;20051;-77
2024/03/21 12:46:35;;;;;;;19.85;10.82;;;;;;;;;;5069935;28;20060;-77
2024/03/21 12:49:39;;;;;;;18.75;10.48;;;;;;;;;;5070835;28;20047;-74
2024/03/21 12:52:44;;;;;;;14.93;8.75;;;;;;;;;;5058404;28;20044;-76
2024/03/21 12:55:48;;;;;;;14.35;8.20;;;21.90;90.20;;;;;;5070914;28;20047;-76
2024/03/21 12:58:52;;;;;;;14.65;9.10;;;;;;;;;;5073736;28;20039;-76
2024/03/21 13:01:56;;;;;;;12.55;7.65;;;;;;;;;;5074549;28;20045;-77
2024/03/21 13:05:04;;;;;;;15.77;7.72;;;;;;;;;;5074809;28;20525;-76
2024/03/21 13:08:11;;;;;;;15.02;9.02;;;;;;;;;;5074403;28;20041;-76
2024/03/21 13:11:15;;;;;;;16.40;9.07;;;;;;;;;;5072977;28;20040;-75
2024/03/21 13:14:20;;;;;;;15.70;8.57;;;;;;;;;;5073256;28;20496;-75
2024/03/21 13:17:24;;;;;;;12.10;6.43;;;;;;;;;;5073524;28;20118;-75
2024/03/21 13:20:28;;;;;;;18.60;7.90;;;;;;;;;;5073665;28;20051;-76
2024/03/21 13:23:32;;;;;;;11.88;6.10;;;;;;;;;;5074447;28;20052;-76
2024/03/21 13:26:36;;;;;;;11.30;6.03;;;;;;;;;;5073917;28;20528;-78
2024/03/21 13:29:41;;;;;;;11.10;5.75;;;;;;;;;;5074162;28;20047;-77
2024/03/21 13:32:47;;;;;;;7.28;4.45;;;;;;;;;;5073264;28;20043;-75
2024/03/21 13:35:50;;;;;;;6.22;4.25;;;;;;;;;;5073544;28;20036;-76
2024/03/21 13:38:57;;;;;;;6.57;4.30;;;;;;;;;;5073610;28;20032;-76
2024/03/21 13:42:03;;;;;;;8.70;4.43;;;;;;;;;;5074464;28;20544;-76
2024/03/21 13:45:10;;;;;;;8.23;3.45;;;;;;;;;;5072933;28;20040;-72
2024/03/21 13:48:14;;;;;;;8.43;4.15;;;;;;;;;;5073717;28;20044;-72
2024/03/21 13:51:19;;;;;;;13.70;5.78;;;;;;;;;;5073805;28;20496;-73
2024/03/21 13:54:24;;;;;;;7.20;4.68;;;;;;;;;;5073699;28;20048;-72
2024/03/21 13:57:34;;;;;;;8.00;4.45;;;;;;;;;;5073534;28;20369;-72
2024/03/21 14:00:39;;;;;;;16.48;5.60;;;;;;;;;;5073599;28;20041;-73
2024/03/21 14:03:47;;;;;;;14.05;4.30;;;;;;;;;;5073360;28;20048;-73
2024/03/21 14:06:52;;;;;;;9.60;3.63;;;;;;;;;;5072528;28;20047;-75
2024/03/21 14:09:57;;;;;;;6.03;3.60;;;;;;;;;;5072560;28;20049;-75
2024/03/21 14:13:01;;;;;;;6.63;3.35;;;;;;;;;;5073386;28;20045;-74
2024/03/21 14:16:06;;;;;;;11.40;3.70;;;;;;;;;;5072490;28;20044;-75
2024/03/21 14:19:10;;;;;;;8.60;3.30;;;;;;;;;;5073270;28;20036;-74
2024/03/21 14:22:14;;;;;;;5.10;2.83;;;;;;;;;;5072910;28;20040;-73
2024/03/21 14:25:19;;;;;;;4.93;2.70;;;;;;;;;;5073178;28;20044;-75
2024/03/21 14:28:23;;;;;;;14.02;4.53;;;;;;;;;;5071983;28;20048;-74
2024/03/21 14:31:30;;;;;;;5.75;3.05;;;;;;;;;;5072217;28;20373;-74
2024/03/21 14:34:35;;;;;;;12.57;4.50;;;;;;;;;;5072998;28;20036;-74
2024/03/21 14:37:42;;;;;;;7.85;2.85;;;;;;;;;;5072937;28;20623;-74
2024/03/21 14:40:46;;;;;;;4.68;2.47;;;;;;;;;;5072786;28;20476;-74
2024/03/21 14:43:50;;;;;;;5.50;2.83;;;;;;;;;;5071667;28;20389;-74
2024/03/21 14:46:55;;;;;;;8.68;2.40;;;;;;;;;;5072561;28;20040;-75
2024/03/21 14:50:00;;;;;;;5.60;2.80;;;;;;;;;;5072355;28;20040;-74
2024/03/21 14:53:04;;;;;;;4.60;2.42;;;;;;;;;;5072649;28;20032;-74
2024/03/21 14:56:10;;;;;;;37.65;5.97;;;;;;;;;;5071447;28;20045;-75
2024/03/21 14:59:14;;;;;;;3.08;1.85;;;;;;;;;;5071730;28;20064;-75
2024/03/21 15:02:18;;;;;;;11.15;2.60;;;;;;;;;;5072466;28;20036;-75
2024/03/21 15:05:23;;;;;;;5.80;2.00;;;;;;;;;;5072195;28;20044;-76
2024/03/21 15:08:27;;;;;;;7.40;2.58;;;;;;;;;;5071368;28;20041;-74
2024/03/21 15:11:35;;;;;;;5.00;1.85;;;;;;;;;;5071802;28;20032;-76
2024/03/21 15:14:39;;;;;;;7.47;2.47;;;;;;;;;;5072034;28;20048;-75
2024/03/21 15:17:44;;;;;;;4.03;1.77;;;;;;;;;;5071700;28;20063;-74
2024/03/21 15:20:49;;;;;;;3.25;1.73;;;;;;;;;;5071409;28;20029;-73
2024/03/21 15:23:55;;;;;;;11.45;1.80;;;;;;;;;;5071640;28;20056;-72
2024/03/21 15:26:59;;;;;;;3.80;2.20;;;;;;;;;;5071362;28;20045;-73
2024/03/21 15:30:04;;;;;;;3.63;1.88;;;;;;;;;;5071913;28;20048;-72
2024/03/21 15:33:08;;;;;;;5.70;2.05;;;;;;;;;;5071467;28;20365;-68
2024/03/21 15:36:12;;;;;;;5.32;1.60;;;;;;;;;;5071710;28;20044;-68
2024/03/21 15:39:19;;;;;;;8.75;2.38;;;;;;;;;;5071590;28;20052;-69
2024/03/21 15:42:23;;;;;;;6.68;2.33;;;;;;;;;;5071453;28;20105;-69
2024/03/21 15:45:27;;;;;;;6.03;2.40;;;;;;;;;;5071359;28;20040;-69
2024/03/21 15:48:32;;;;;;;4.88;2.00;;;;;;;;;;5071370;28;20040;-70
2024/03/21 15:51:36;;;;;;;10.20;2.47;;;;;;;;;;5071433;28;20040;-70
2024/03/21 15:54:40;;;;;;;13.40;6.75;;;;;;;;;;5071432;28;20043;-69
2024/03/21 15:57:45;;;;;;;9.15;3.50;;;;;;;;;;5071248;28;20500;-71
2024/03/21 16:00:49;;;;;;;21.77;3.95;;;;;;;;;;5070401;28;20041;-69
2024/03/21 16:03:54;;;;;;;6.57;2.40;;;;;;;;;;5070945;28;20514;-68
2024/03/21 16:06:59;;;;;;;7.93;2.58;;;;;;;;;;5071029;28;20037;-69
2024/03/21 16:10:04;;;;;;;8.07;2.15;;;19.40;87.60;;;;;;5071025;28;20037;-68
2024/03/21 16:13:11;;;;;;;8.30;2.25;;;;;;;;;;5071204;28;20044;-69
2024/03/21 16:16:15;;;;;;;21.58;3.53;;;;;;;;;;5071090;28;20044;-68
2024/03/21 16:19:20;;;;;;;11.32;3.45;;;;;;;;;;5069866;28;20504;-68
2024/03/21 16:22:24;;;;;;;11.27;2.60;;;;;;;;;;5070849;28;20052;-70
2024/03/21 16:25:29;;;;;;;6.75;2.63;;;;;;;;;;5071009;28;20047;-71
2024/03/21 16:28:33;;;;;;;8.45;2.58;;;;;;;;;;5069807;28;20040;-70
2024/03/21 16:31:39;;;;;;;6.53;2.65;;;;;;;;;;5070377;28;20041;-71
2024/03/21 16:34:43;;;;;;;7.30;2.50;;;;;;;;;;5070918;28;20048;-71
2024/03/21 16:37:47;;;;;;;3.33;2.35;;;;;;;;;;5070687;28;20048;-69
2024/03/21 16:40:52;;;;;;;9.40;2.72;;;;;;;;;;5070992;28;20037;-69
2024/03/21 16:43:56;;;;;;;8.45;2.30;;;;;;;;;;5070611;28;20457;-70
2024/03/21 16:47:01;;;;;;;5.72;2.03;;;;;;;;;;5070307;28;20040;-71
2024/03/21 16:50:06;;;;;;;7.03;1.90;;;;;;;;;;5070499;28;20036;-72
2024/03/21 16:53:10;;;;;;;3.90;2.35;;;;;;;;;;5070637;28;20037;-71
2024/03/21 16:56:14;;;;;;;7.10;2.50;;;;;;;;;;5069766;28;20048;-70
2024/03/21 16:59:23;;;;;;;11.88;2.95;;;;;;;;;;5070347;28;20370;-68
2024/03/21 17:02:27;;;;;;;11.23;3.22;;;;;;;;;;5070152;28;20036;-69
2024/03/21 17:05:33;;;;;;;10.98;3.05;;;;;;;;;;5070761;28;20055;-70
2024/03/21 17:08:38;;;;;;;16.10;5.97;;;;;;;;;;5070614;28;20383;-70
2024/03/21 17:11:45;;;;;;;11.77;4.60;;;;;;;;;;5070553;28;20041;-69
2024/03/21 17:14:49;;;;;;;9.45;3.78;;;;;;;;;;5069623;28;20047;-69
2024/03/21 17:17:53;;;;;;;13.70;4.78;;;;;;;;;;5070296;28;20044;-69
2024/03/21 17:20:58;;;;;;;17.65;6.30;;;;;;;;;;5070572;28;20051;-70
2024/03/21 17:24:02;;;;;;;18.27;7.10;;;;;;;;;;5070237;28;20412;-69
2024/03/21 17:27:06;;;;;;;15.75;7.95;;;;;;;;;;5070327;28;20131;-69
2024/03/21 17:30:11;;;;;;;14.80;4.38;;;;;;;;;;5070352;28;20407;-69
2024/03/21 17:33:15;;;;;;;9.63;3.42;;;;;;;;;;5070214;28;20037;-69